Aérodrome :
LOGIN :

S'inscrire | Disclaimer

   EN    FR    IT 

 










Légende :    VFR   VFR Marginal   IFR   IFR Intensif   IFR Très Intensif
Visi : 
Plafond : 
>= 8 km
>= 3000ft
5 à 8 km
1000 à 3000 ft
1500m à 5 km
500 à 1000 ft
800 à 1500m
200 à 500 ft
< 800m
< 200 ft
Symboles :   Orages  Brouillard  Fortes neiges  Fortes précipitations  Vent > 20 kt
SIGMETs :   Divers  Orages  Givrage  Turbulence  Onde Orograph.  Cendres Volcan.






- Altitude de l'aérodrome : 203 ft
- Code IATA : XMJ


LFBM - Mont-De-Marsan

DERNIER METAR :
  • 142100Z AUTO 19003KT 140V240 CAVOK 05/05 Q0998 TEMPO 23015G25KT 4000 SHRA BKN015 BKN030CB

METARs EXPIRÉS :
  • 142030Z AUTO 21004KT 9999 FEW031/// SCT090/// BKN170/// ///TCU 05/05 Q0998 BECMG BKN006 BKN020
  • 142000Z AUTO VRB02KT 6000 -RA FEW013/// SCT029/// BKN035/// ///TCU 05/05 Q0998 TEMPO 23015G25KT 4000 SHRA BKN015 BKN030CB
  • 141930Z AUTO 28005KT 6000 RA FEW014/// SCT019/// OVC036/// ///CB 05/05 Q0999 TEMPO 23015G25KT 4000 SHRA BECMG BKN006 BKN020
  • 141900Z AUTO 31006KT 9999 FEW012/// BKN024/// BKN031/// ///TCU 04/04 Q0999 TEMPO 23015G25KT 4000 SHRA BKN015 BKN030CB
  • 141830Z AUTO 00000KT 8000 3600 FEW032/// SCT054/// OVC068/// ///TCU 03/03 Q0998 TEMPO 23015G25KT 4000 SHRA BKN015 BKN030CB

TAF TAF LFBM
Valide du 14 à 21h jusqu'au 15 à 21h UTC


142000Z 1421/1521 24005KT 9999 FEW015 SCT025 BKN040
TEMPO 1421/1515 23015G25KT 4000 SHRA BKN015 BKN030CB
PROB40
TEMPO 1501/1507 2000 BR BKN006 BKN012
BECMG 1519/1521 BKN006



MET'MAP, la Météo Aéronautique d'un coup d'oeil ! - Copyright ORBIFLY Décembre 2007 - Disclaimer

ORBIFLY MET'MAP TEAM :

Programmation & Développement : Alexandra Zaïnal
Conception & Développement : Baudouin d'Aumeries
Co-Programmation & Développement : Marc-Olivier Méhu
Soutien technique & logistique : Manuel Goepfert

Contact : metmap@orbifly.com




SOURCES & CREDITS :

   NOAA